sensor_id;sensor_type;location;lat;lon;timestamp;pressure;altitude;pressure_sealevel;temperature;humidity
16148;BME280;8179;59.364;18.018;2024-02-28T00:01:16;101498.19;;;2.47;100.00
16148;BME280;8179;59.364;18.018;2024-02-28T00:03:43;101500.41;;;2.30;100.00
16148;BME280;8179;59.364;18.018;2024-02-28T00:06:09;101489.47;;;2.32;100.00
16148;BME280;8179;59.364;18.018;2024-02-28T00:08:36;101495.88;;;2.31;100.00
16148;BME280;8179;59.364;18.018;2024-02-28T00:11:03;101488.88;;;2.43;100.00
16148;BME280;8179;59.364;18.018;2024-02-28T00:13:30;101492.38;;;2.37;100.00
16148;BME280;8179;59.364;18.018;2024-02-28T00:15:57;101491.56;;;2.36;100.00
16148;BME280;8179;59.364;18.018;2024-02-28T00:18:25;101487.03;;;2.43;100.00
16148;BME280;8179;59.364;18.018;2024-02-28T00:20:52;101483.31;;;2.44;100.00
16148;BME280;8179;59.364;18.018;2024-02-28T00:23:19;101479.81;;;2.44;100.00
16148;BME280;8179;59.364;18.018;2024-02-28T00:25:46;101479.59;;;2.45;100.00
16148;BME280;8179;59.364;18.018;2024-02-28T00:28:13;101484.13;;;2.45;100.00
16148;BME280;8179;59.364;18.018;2024-02-28T00:30:40;101469.66;;;2.39;100.00
16148;BME280;8179;59.364;18.018;2024-02-28T00:33:07;101478.16;;;2.43;100.00
16148;BME280;8179;59.364;18.018;2024-02-28T00:35:35;101465.16;;;2.40;100.00
16148;BME280;8179;59.364;18.018;2024-02-28T00:38:02;101460.16;;;2.37;100.00
16148;BME280;8179;59.364;18.018;2024-02-28T00:40:29;101463.47;;;2.45;100.00
16148;BME280;8179;59.364;18.018;2024-02-28T00:42:56;101470.94;;;2.50;100.00
16148;BME280;8179;59.364;18.018;2024-02-28T00:45:23;101467.38;;;2.30;100.00
16148;BME280;8179;59.364;18.018;2024-02-28T00:47:50;101460.78;;;2.32;100.00
16148;BME280;8179;59.364;18.018;2024-02-28T00:50:17;101463.28;;;2.34;100.00
16148;BME280;8179;59.364;18.018;2024-02-28T00:52:45;101455.41;;;2.39;100.00
16148;BME280;8179;59.364;18.018;2024-02-28T00:55:12;101458.09;;;2.39;100.00
16148;BME280;8179;59.364;18.018;2024-02-28T00:57:39;101461.81;;;2.38;100.00
16148;BME280;8179;59.364;18.018;2024-02-28T01:00:09;101457.50;;;2.37;100.00
16148;BME280;8179;59.364;18.018;2024-02-28T01:02:36;101456.44;;;2.38;100.00
16148;BME280;8179;59.364;18.018;2024-02-28T01:05:03;101458.09;;;2.39;100.00
16148;BME280;8179;59.364;18.018;2024-02-28T01:07:30;101457.09;;;2.40;100.00
16148;BME280;8179;59.364;18.018;2024-02-28T01:09:59;101461.44;;;2.41;100.00
16148;BME280;8179;59.364;18.018;2024-02-28T01:12:26;101454.22;;;2.41;100.00
16148;BME280;8179;59.364;18.018;2024-02-28T01:14:53;101456.44;;;2.38;100.00
16148;BME280;8179;59.364;18.018;2024-02-28T01:17:20;101450.06;;;2.39;100.00
16148;BME280;8179;59.364;18.018;2024-02-28T01:19:47;101457.91;;;2.34;100.00
16148;BME280;8179;59.364;18.018;2024-02-28T01:22:14;101454.78;;;2.30;100.00
16148;BME280;8179;59.364;18.018;2024-02-28T01:24:41;101446.72;;;2.30;100.00
16148;BME280;8179;59.364;18.018;2024-02-28T01:27:09;101444.25;;;2.29;100.00
16148;BME280;8179;59.364;18.018;2024-02-28T01:29:36;101451.91;;;2.32;100.00
16148;BME280;8179;59.364;18.018;2024-02-28T01:32:03;101452.72;;;2.32;100.00
16148;BME280;8179;59.364;18.018;2024-02-28T01:34:30;101452.94;;;2.37;100.00
16148;BME280;8179;59.364;18.018;2024-02-28T01:36:57;101448.00;;;2.34;100.00
16148;BME280;8179;59.364;18.018;2024-02-28T01:39:24;101448.59;;;2.30;100.00
16148;BME280;8179;59.364;18.018;2024-02-28T01:41:52;101451.69;;;2.27;100.00
16148;BME280;8179;59.364;18.018;2024-02-28T01:44:20;101446.94;;;2.22;100.00
16148;BME280;8179;59.364;18.018;2024-02-28T01:46:47;101441.84;;;2.47;100.00
16148;BME280;8179;59.364;18.018;2024-02-28T01:49:14;101439.31;;;2.26;100.00
16148;BME280;8179;59.364;18.018;2024-02-28T01:51:44;101444.03;;;2.24;100.00
16148;BME280;8179;59.364;18.018;2024-02-28T01:54:11;101448.38;;;2.25;100.00
16148;BME280;8179;59.364;18.018;2024-02-28T01:56:39;101442.00;;;2.26;100.00
16148;BME280;8179;59.364;18.018;2024-02-28T01:59:07;101444.44;;;2.20;100.00
16148;BME280;8179;59.364;18.018;2024-02-28T02:01:37;101433.78;;;2.47;100.00
16148;BME280;8179;59.364;18.018;2024-02-28T02:04:04;101433.31;;;2.24;100.00
16148;BME280;8179;59.364;18.018;2024-02-28T02:06:32;101430.03;;;2.35;100.00
16148;BME280;8179;59.364;18.018;2024-02-28T02:08:59;101418.88;;;2.38;100.00
16148;BME280;8179;59.364;18.018;2024-02-28T02:11:26;101423.22;;;2.45;100.00
16148;BME280;8179;59.364;18.018;2024-02-28T02:13:53;101428.56;;;2.39;100.00
16148;BME280;8179;59.364;18.018;2024-02-28T02:16:20;101426.72;;;2.39;100.00
16148;BME280;8179;59.364;18.018;2024-02-28T02:18:53;101400.06;;;2.31;100.00
16148;BME280;8179;59.364;18.018;2024-02-28T02:21:22;101422.19;;;2.46;100.00
16148;BME280;8179;59.364;18.018;2024-02-28T02:23:50;101422.81;;;2.48;100.00
16148;BME280;8179;59.364;18.018;2024-02-28T02:26:17;101419.09;;;2.50;100.00
16148;BME280;8179;59.364;18.018;2024-02-28T02:28:44;101416.63;;;2.48;100.00
16148;BME280;8179;59.364;18.018;2024-02-28T02:31:11;101418.50;;;2.47;100.00
16148;BME280;8179;59.364;18.018;2024-02-28T02:33:38;101415.59;;;2.42;100.00
16148;BME280;8179;59.364;18.018;2024-02-28T02:36:06;101412.25;;;2.20;100.00
16148;BME280;8179;59.364;18.018;2024-02-28T02:38:32;101406.88;;;2.14;100.00
16148;BME280;8179;59.364;18.018;2024-02-28T02:41:01;101418.84;;;2.25;100.00
16148;BME280;8179;59.364;18.018;2024-02-28T02:43:28;101408.72;;;2.13;100.00
16148;BME280;8179;59.364;18.018;2024-02-28T02:45:55;101414.72;;;2.15;100.00
16148;BME280;8179;59.364;18.018;2024-02-28T02:48:21;101405.22;;;2.13;100.00
16148;BME280;8179;59.364;18.018;2024-02-28T02:50:48;101414.31;;;2.12;100.00
16148;BME280;8179;59.364;18.018;2024-02-28T02:53:15;101414.09;;;2.13;100.00
16148;BME280;8179;59.364;18.018;2024-02-28T02:55:42;101409.31;;;2.09;100.00
16148;BME280;8179;59.364;18.018;2024-02-28T02:58:10;101406.66;;;2.09;100.00
16148;BME280;8179;59.364;18.018;2024-02-28T03:00:37;101408.72;;;2.07;100.00
16148;BME280;8179;59.364;18.018;2024-02-28T03:03:04;101405.59;;;2.03;100.00
16148;BME280;8179;59.364;18.018;2024-02-28T03:05:32;101404.38;;;2.06;100.00
16148;BME280;8179;59.364;18.018;2024-02-28T03:07:59;101406.41;;;2.04;100.00
16148;BME280;8179;59.364;18.018;2024-02-28T03:10:26;101401.88;;;2.04;100.00
16148;BME280;8179;59.364;18.018;2024-02-28T03:12:52;101399.63;;;2.01;100.00
16148;BME280;8179;59.364;18.018;2024-02-28T03:15:21;101395.09;;;2.08;100.00
16148;BME280;8179;59.364;18.018;2024-02-28T03:17:48;101372.53;;;1.89;100.00
16148;BME280;8179;59.364;18.018;2024-02-28T03:20:15;101400.66;;;2.07;100.00
16148;BME280;8179;59.364;18.018;2024-02-28T03:22:41;101406.22;;;1.99;100.00
16148;BME280;8179;59.364;18.018;2024-02-28T03:25:09;101401.44;;;1.94;100.00
16148;BME280;8179;59.364;18.018;2024-02-28T03:27:36;101402.53;;;2.13;100.00
16148;BME280;8179;59.364;18.018;2024-02-28T03:30:03;101391.00;;;2.26;100.00
16148;BME280;8179;59.364;18.018;2024-02-28T03:32:32;101388.31;;;2.32;100.00
16148;BME280;8179;59.364;18.018;2024-02-28T03:34:59;101390.81;;;2.34;100.00
16148;BME280;8179;59.364;18.018;2024-02-28T03:37:26;101388.28;;;1.99;100.00
16148;BME280;8179;59.364;18.018;2024-02-28T03:39:52;101391.34;;;1.96;100.00
16148;BME280;8179;59.364;18.018;2024-02-28T03:42:19;101392.44;;;2.22;100.00
16148;BME280;8179;59.364;18.018;2024-02-28T03:44:46;101388.72;;;2.23;100.00
16148;BME280;8179;59.364;18.018;2024-02-28T03:47:13;101392.84;;;2.32;100.00
16148;BME280;8179;59.364;18.018;2024-02-28T03:49:41;101396.56;;;2.31;100.00
16148;BME280;8179;59.364;18.018;2024-02-28T03:52:08;101383.50;;;1.95;100.00
16148;BME280;8179;59.364;18.018;2024-02-28T03:54:35;101389.47;;;1.97;100.00
16148;BME280;8179;59.364;18.018;2024-02-28T03:57:02;101378.97;;;1.95;100.00
16148;BME280;8179;59.364;18.018;2024-02-28T03:59:28;101388.63;;;1.89;100.00
16148;BME280;8179;59.364;18.018;2024-02-28T04:01:55;101387.22;;;1.93;100.00
16148;BME280;8179;59.364;18.018;2024-02-28T04:04:21;101397.19;;;2.19;100.00
16148;BME280;8179;59.364;18.018;2024-02-28T04:06:50;101392.78;;;1.92;100.00
16148;BME280;8179;59.364;18.018;2024-02-28T04:09:16;101394.38;;;1.80;100.00
16148;BME280;8179;59.364;18.018;2024-02-28T04:11:44;101389.84;;;1.80;100.00
16148;BME280;8179;59.364;18.018;2024-02-28T04:14:10;101383.25;;;1.83;100.00
16148;BME280;8179;59.364;18.018;2024-02-28T04:16:41;101385.31;;;1.81;100.00
16148;BME280;8179;59.364;18.018;2024-02-28T04:19:09;101385.31;;;1.81;100.00
16148;BME280;8179;59.364;18.018;2024-02-28T04:21:36;101380.56;;;1.83;100.00
16148;BME280;8179;59.364;18.018;2024-02-28T04:24:04;101372.72;;;1.81;100.00
16148;BME280;8179;59.364;18.018;2024-02-28T04:26:31;101376.25;;;1.82;100.00
16148;BME280;8179;59.364;18.018;2024-02-28T04:28:58;101365.72;;;1.80;100.00
16148;BME280;8179;59.364;18.018;2024-02-28T04:31:27;101370.88;;;1.82;100.00
16148;BME280;8179;59.364;18.018;2024-02-28T04:33:53;101368.84;;;1.84;100.00
16148;BME280;8179;59.364;18.018;2024-02-28T04:36:20;101368.03;;;1.83;100.00
16148;BME280;8179;59.364;18.018;2024-02-28T04:38:47;101364.91;;;1.80;100.00
16148;BME280;8179;59.364;18.018;2024-02-28T04:41:15;101362.22;;;1.80;100.00
16148;BME280;8179;59.364;18.018;2024-02-28T04:43:42;101366.53;;;1.81;100.00
16148;BME280;8179;59.364;18.018;2024-02-28T04:46:09;101366.34;;;1.82;100.00
16148;BME280;8179;59.364;18.018;2024-02-28T04:48:36;101364.28;;;1.78;100.00
16148;BME280;8179;59.364;18.018;2024-02-28T04:51:03;101367.78;;;1.78;100.00
16148;BME280;8179;59.364;18.018;2024-02-28T04:53:30;101358.28;;;1.76;100.00
16148;BME280;8179;59.364;18.018;2024-02-28T04:55:57;101362.63;;;1.77;100.00
16148;BME280;8179;59.364;18.018;2024-02-28T04:58:25;101362.63;;;1.90;100.00
16148;BME280;8179;59.364;18.018;2024-02-28T05:00:52;101368.41;;;1.80;100.00
16148;BME280;8179;59.364;18.018;2024-02-28T05:03:19;101368.81;;;1.77;100.00
16148;BME280;8179;59.364;18.018;2024-02-28T05:05:47;101370.03;;;1.75;100.00
16148;BME280;8179;59.364;18.018;2024-02-28T05:08:14;101357.88;;;1.72;100.00
16148;BME280;8179;59.364;18.018;2024-02-28T05:10:41;101366.13;;;1.77;100.00
16148;BME280;8179;59.364;18.018;2024-02-28T05:13:08;101357.06;;;1.78;100.00
16148;BME280;8179;59.364;18.018;2024-02-28T05:15:36;101360.34;;;1.74;100.00
16148;BME280;8179;59.364;18.018;2024-02-28T05:18:04;101357.66;;;1.74;100.00
16148;BME280;8179;59.364;18.018;2024-02-28T05:20:31;101349.69;;;2.00;100.00
16148;BME280;8179;59.364;18.018;2024-02-28T05:22:57;101356.91;;;2.06;100.00
16148;BME280;8179;59.364;18.018;2024-02-28T05:25:24;101362.69;;;2.10;100.00
16148;BME280;8179;59.364;18.018;2024-02-28T05:27:51;101368.50;;;2.13;100.00
16148;BME280;8179;59.364;18.018;2024-02-28T05:30:18;101373.16;;;1.85;100.00
16148;BME280;8179;59.364;18.018;2024-02-28T05:32:46;101358.53;;;1.94;100.00
16148;BME280;8179;59.364;18.018;2024-02-28T05:35:13;101361.88;;;2.09;100.00
16148;BME280;8179;59.364;18.018;2024-02-28T05:37:40;101361.47;;;2.12;100.00
16148;BME280;8179;59.364;18.018;2024-02-28T05:40:08;101363.97;;;2.20;100.00
16148;BME280;8179;59.364;18.018;2024-02-28T05:42:38;101359.63;;;2.19;100.00
16148;BME280;8179;59.364;18.018;2024-02-28T05:45:05;101356.13;;;2.19;100.00
16148;BME280;8179;59.364;18.018;2024-02-28T05:47:31;101353.59;;;1.91;100.00
16148;BME280;8179;59.364;18.018;2024-02-28T05:50:00;101343.44;;;1.80;100.00
16148;BME280;8179;59.364;18.018;2024-02-28T05:52:27;101345.31;;;1.79;100.00
16148;BME280;8179;59.364;18.018;2024-02-28T05:54:54;101357.28;;;1.83;100.00
16148;BME280;8179;59.364;18.018;2024-02-28T05:57:21;101355.03;;;2.00;100.00
16148;BME280;8179;59.364;18.018;2024-02-28T05:59:49;101360.59;;;1.85;100.00
16148;BME280;8179;59.364;18.018;2024-02-28T06:02:16;101337.25;;;1.79;100.00
16148;BME280;8179;59.364;18.018;2024-02-28T06:04:43;101350.25;;;1.89;100.00
16148;BME280;8179;59.364;18.018;2024-02-28T06:07:11;101349.22;;;1.90;100.00
16148;BME280;8179;59.364;18.018;2024-02-28T06:09:38;101357.28;;;1.90;100.00
16148;BME280;8179;59.364;18.018;2024-02-28T06:12:05;101353.16;;;1.87;100.00
16148;BME280;8179;59.364;18.018;2024-02-28T06:14:33;101354.22;;;1.93;100.00
16148;BME280;8179;59.364;18.018;2024-02-28T06:17:00;101343.06;;;1.96;100.00
16148;BME280;8179;59.364;18.018;2024-02-28T06:19:27;101343.88;;;1.90;100.00
16148;BME280;8179;59.364;18.018;2024-02-28T06:21:53;101348.03;;;1.99;100.00
16148;BME280;8179;59.364;18.018;2024-02-28T06:24:22;101338.94;;;2.00;100.00
16148;BME280;8179;59.364;18.018;2024-02-28T06:26:48;101338.34;;;1.98;100.00
16148;BME280;8179;59.364;18.018;2024-02-28T06:29:15;101346.19;;;2.06;100.00
16148;BME280;8179;59.364;18.018;2024-02-28T06:31:42;101342.69;;;2.06;100.00
16148;BME280;8179;59.364;18.018;2024-02-28T06:34:09;101347.84;;;2.07;100.00
16148;BME280;8179;59.364;18.018;2024-02-28T06:36:36;101357.13;;;2.11;100.00
16148;BME280;8179;59.364;18.018;2024-02-28T06:39:03;101341.44;;;2.08;100.00
16148;BME280;8179;59.364;18.018;2024-02-28T06:41:31;101357.75;;;2.13;100.00
16148;BME280;8179;59.364;18.018;2024-02-28T06:43:59;101357.34;;;2.16;100.00
16148;BME280;8179;59.364;18.018;2024-02-28T06:46:25;101353.59;;;2.11;100.00
16148;BME280;8179;59.364;18.018;2024-02-28T06:48:52;101355.91;;;2.14;100.00
16148;BME280;8179;59.364;18.018;2024-02-28T06:51:19;101356.50;;;2.16;100.00
16148;BME280;8179;59.364;18.018;2024-02-28T06:53:48;101337.31;;;2.06;100.00
16148;BME280;8179;59.364;18.018;2024-02-28T06:56:15;101356.28;;;2.17;100.00
16148;BME280;8179;59.364;18.018;2024-02-28T06:58:43;101353.00;;;2.15;100.00
16148;BME280;8179;59.364;18.018;2024-02-28T07:01:10;101351.97;;;2.16;100.00
16148;BME280;8179;59.364;18.018;2024-02-28T07:03:37;101228.50;;;1.44;100.00
16148;BME280;8179;59.364;18.018;2024-02-28T07:06:04;101347.66;;;2.29;100.00
16148;BME280;8179;59.364;18.018;2024-02-28T07:08:31;101345.78;;;2.29;100.00
16148;BME280;8179;59.364;18.018;2024-02-28T07:10:58;101348.47;;;2.29;100.00
16148;BME280;8179;59.364;18.018;2024-02-28T07:13:25;101352.81;;;2.30;100.00
16148;BME280;8179;59.364;18.018;2024-02-28T07:15:53;101350.34;;;2.29;100.00
16148;BME280;8179;59.364;18.018;2024-02-28T07:18:23;101345.19;;;2.40;100.00
16148;BME280;8179;59.364;18.018;2024-02-28T07:20:51;101347.22;;;2.45;100.00
16148;BME280;8179;59.364;18.018;2024-02-28T07:23:18;101349.53;;;2.48;100.00
16148;BME280;8179;59.364;18.018;2024-02-28T07:25:44;101345.81;;;2.49;100.00
16148;BME280;8179;59.364;18.018;2024-02-28T07:28:12;101336.28;;;2.46;100.00
16148;BME280;8179;59.364;18.018;2024-02-28T07:30:39;101343.34;;;2.47;100.00
16148;BME280;8179;59.364;18.018;2024-02-28T07:33:07;101353.44;;;2.52;100.00
16148;BME280;8179;59.364;18.018;2024-02-28T07:35:44;101348.69;;;2.54;100.00
16148;BME280;8179;59.364;18.018;2024-02-28T07:38:11;101347.84;;;2.67;100.00
16148;BME280;8179;59.364;18.018;2024-02-28T07:40:38;101360.44;;;2.66;100.00
16148;BME280;8179;59.364;18.018;2024-02-28T07:43:05;101345.75;;;2.89;100.00
16148;BME280;8179;59.364;18.018;2024-02-28T07:45:32;101339.53;;;2.95;100.00
16148;BME280;8179;59.364;18.018;2024-02-28T07:47:58;101335.00;;;2.95;100.00
16148;BME280;8179;59.364;18.018;2024-02-28T07:50:27;101340.81;;;2.86;100.00
16148;BME280;8179;59.364;18.018;2024-02-28T07:52:54;101338.34;;;2.84;100.00
16148;BME280;8179;59.364;18.018;2024-02-28T07:55:21;101347.38;;;3.03;100.00
16148;BME280;8179;59.364;18.018;2024-02-28T07:57:51;101342.47;;;2.80;100.00
16148;BME280;8179;59.364;18.018;2024-02-28T08:00:18;101338.72;;;2.81;100.00
16148;BME280;8179;59.364;18.018;2024-02-28T08:02:45;101344.09;;;2.81;100.00
16148;BME280;8179;59.364;18.018;2024-02-28T08:05:13;101317.66;;;2.91;100.00
16148;BME280;8179;59.364;18.018;2024-02-28T08:07:41;101344.91;;;3.01;100.00
16148;BME280;8179;59.364;18.018;2024-02-28T08:10:11;101341.81;;;2.98;100.00
16148;BME280;8179;59.364;18.018;2024-02-28T08:12:39;101334.81;;;2.84;100.00
16148;BME280;8179;59.364;18.018;2024-02-28T08:15:06;101338.31;;;2.91;100.00
16148;BME280;8179;59.364;18.018;2024-02-28T08:17:33;101349.25;;;2.96;100.00
16148;BME280;8179;59.364;18.018;2024-02-28T08:20:00;101340.78;;;2.92;100.00
16148;BME280;8179;59.364;18.018;2024-02-28T08:22:27;101344.50;;;2.98;100.00
16148;BME280;8179;59.364;18.018;2024-02-28T08:24:56;101351.53;;;2.92;100.00
16148;BME280;8179;59.364;18.018;2024-02-28T08:27:23;101345.13;;;3.00;100.00
16148;BME280;8179;59.364;18.018;2024-02-28T08:29:50;101343.03;;;3.02;100.00
16148;BME280;8179;59.364;18.018;2024-02-28T08:32:17;101344.09;;;2.94;100.00
16148;BME280;8179;59.364;18.018;2024-02-28T08:34:44;101343.03;;;2.95;100.00
16148;BME280;8179;59.364;18.018;2024-02-28T08:37:11;101351.72;;;3.04;100.00
16148;BME280;8179;59.364;18.018;2024-02-28T08:39:38;101350.69;;;3.05;100.00
16148;BME280;8179;59.364;18.018;2024-02-28T08:42:07;101357.72;;;2.99;100.00
16148;BME280;8179;59.364;18.018;2024-02-28T08:44:34;101351.31;;;3.00;100.00
16148;BME280;8179;59.364;18.018;2024-02-28T08:47:01;101353.78;;;2.95;100.00
16148;BME280;8179;59.364;18.018;2024-02-28T08:49:27;101343.66;;;3.04;100.00
16148;BME280;8179;59.364;18.018;2024-02-28T08:51:57;101345.31;;;3.05;100.00
16148;BME280;8179;59.364;18.018;2024-02-28T08:54:24;101358.53;;;3.07;100.00
16148;BME280;8179;59.364;18.018;2024-02-28T08:56:51;101349.84;;;3.11;100.00
16148;BME280;8179;59.364;18.018;2024-02-28T08:59:20;101332.41;;;3.34;100.00
16148;BME280;8179;59.364;18.018;2024-02-28T09:01:48;101334.06;;;3.35;100.00
16148;BME280;8179;59.364;18.018;2024-02-28T09:04:14;101337.31;;;3.43;100.00
16148;BME280;8179;59.364;18.018;2024-02-28T09:06:41;101333.41;;;3.46;100.00
16148;BME280;8179;59.364;18.018;2024-02-28T09:09:08;101338.75;;;3.52;100.00
16148;BME280;8179;59.364;18.018;2024-02-28T09:11:35;101341.03;;;3.49;100.00
16148;BME280;8179;59.364;18.018;2024-02-28T09:14:02;101339.81;;;3.38;100.00
16148;BME280;8179;59.364;18.018;2024-02-28T09:16:30;101342.88;;;3.55;100.00
16148;BME280;8179;59.364;18.018;2024-02-28T09:18:57;101338.97;;;3.44;100.00
16148;BME280;8179;59.364;18.018;2024-02-28T09:21:24;101341.03;;;3.49;100.00
16148;BME280;8179;59.364;18.018;2024-02-28T09:23:51;101332.34;;;3.47;100.00
16148;BME280;8179;59.364;18.018;2024-02-28T09:26:18;101341.84;;;3.49;100.00
16148;BME280;8179;59.364;18.018;2024-02-28T09:28:44;101330.88;;;3.51;100.00
16148;BME280;8179;59.364;18.018;2024-02-28T09:31:11;101334.81;;;3.55;100.00
16148;BME280;8179;59.364;18.018;2024-02-28T09:33:42;101340.16;;;3.62;100.00
16148;BME280;8179;59.364;18.018;2024-02-28T09:36:11;101333.94;;;3.61;100.00
16148;BME280;8179;59.364;18.018;2024-02-28T09:38:38;101334.34;;;3.58;100.00
16148;BME280;8179;59.364;18.018;2024-02-28T09:41:06;101334.19;;;3.91;100.00
16148;BME280;8179;59.364;18.018;2024-02-28T09:43:41;101329.84;;;3.90;100.00
16148;BME280;8179;59.364;18.018;2024-02-28T09:46:08;101330.50;;;3.85;100.00
16148;BME280;8179;59.364;18.018;2024-02-28T09:48:38;101324.69;;;3.89;100.00
16148;BME280;8179;59.364;18.018;2024-02-28T09:51:08;101333.41;;;3.84;100.00
16148;BME280;8179;59.364;18.018;2024-02-28T09:53:35;101334.72;;;3.75;100.00
16148;BME280;8179;59.364;18.018;2024-02-28T09:56:03;101341.28;;;3.79;100.00
16148;BME280;8179;59.364;18.018;2024-02-28T09:58:30;101334.63;;;3.88;100.00
16148;BME280;8179;59.364;18.018;2024-02-28T10:00:59;101336.28;;;3.89;100.00
16148;BME280;8179;59.364;18.018;2024-02-28T10:03:30;101336.72;;;3.79;100.00
16148;BME280;8179;59.364;18.018;2024-02-28T10:05:57;101341.69;;;3.82;100.00
16148;BME280;8179;59.364;18.018;2024-02-28T10:08:25;101337.50;;;3.86;100.00
16148;BME280;8179;59.364;18.018;2024-02-28T10:10:54;101319.53;;;3.80;100.00
16148;BME280;8179;59.364;18.018;2024-02-28T10:13:23;101318.31;;;3.83;100.00
16148;BME280;8179;59.364;18.018;2024-02-28T10:15:49;101307.78;;;3.81;100.00
16148;BME280;8179;59.364;18.018;2024-02-28T10:18:16;101310.00;;;3.84;100.00
16148;BME280;8179;59.364;18.018;2024-02-28T10:20:43;101312.25;;;3.88;100.00
16148;BME280;8179;59.364;18.018;2024-02-28T10:23:10;101311.28;;;3.82;100.00
16148;BME280;8179;59.364;18.018;2024-02-28T10:25:43;101314.34;;;3.85;100.00
16148;BME280;8179;59.364;18.018;2024-02-28T10:28:11;101311.63;;;3.92;100.00
16148;BME280;8179;59.364;18.018;2024-02-28T10:30:40;101312.44;;;3.93;100.00
16148;BME280;8179;59.364;18.018;2024-02-28T10:33:11;101311.53;;;4.05;100.00
16148;BME280;8179;59.364;18.018;2024-02-28T10:35:40;101314.91;;;3.94;100.00
16148;BME280;8179;59.364;18.018;2024-02-28T10:38:09;101317.56;;;4.01;100.00
16148;BME280;8179;59.364;18.018;2024-02-28T10:40:39;101321.47;;;4.05;100.00
16148;BME280;8179;59.364;18.018;2024-02-28T10:43:09;101314.41;;;4.10;100.00
16148;BME280;8179;59.364;18.018;2024-02-28T10:45:37;101317.25;;;4.16;100.00
16148;BME280;8179;59.364;18.018;2024-02-28T10:48:06;101308.00;;;4.05;100.00
16148;BME280;8179;59.364;18.018;2024-02-28T10:50:33;101310.84;;;4.17;100.00
16148;BME280;8179;59.364;18.018;2024-02-28T10:53:01;101315.59;;;4.14;100.00
16148;BME280;8179;59.364;18.018;2024-02-28T10:55:33;101294.09;;;3.83;100.00
16148;BME280;8179;59.364;18.018;2024-02-28T10:58:03;101306.59;;;4.02;100.00
16148;BME280;8179;59.364;18.018;2024-02-28T11:00:31;101261.44;;;3.73;100.00
16148;BME280;8179;59.364;18.018;2024-02-28T11:02:59;101302.91;;;3.97;100.00
16148;BME280;8179;59.364;18.018;2024-02-28T11:05:35;101307.41;;;4.03;100.00
16148;BME280;8179;59.364;18.018;2024-02-28T11:08:04;101293.16;;;4.02;100.00
16148;BME280;8179;59.364;18.018;2024-02-28T11:10:31;101291.91;;;3.98;100.00
16148;BME280;8179;59.364;18.018;2024-02-28T11:12:59;101291.28;;;4.03;100.00
16148;BME280;8179;59.364;18.018;2024-02-28T11:15:26;101299.25;;;4.16;100.00
16148;BME280;8179;59.364;18.018;2024-02-28T11:17:54;101273.91;;;3.99;100.00
16148;BME280;8179;59.364;18.018;2024-02-28T11:20:21;101272.47;;;4.21;100.00
16148;BME280;8179;59.364;18.018;2024-02-28T11:22:56;101274.28;;;4.52;100.00
16148;BME280;8179;59.364;18.018;2024-02-28T11:25:24;101276.69;;;4.60;100.00
16148;BME280;8179;59.364;18.018;2024-02-28T11:27:51;101283.59;;;4.75;100.00
16148;BME280;8179;59.364;18.018;2024-02-28T11:30:18;101274.00;;;4.79;100.00
16148;BME280;8179;59.364;18.018;2024-02-28T11:32:45;101272.00;;;4.74;100.00
16148;BME280;8179;59.364;18.018;2024-02-28T11:35:13;101276.50;;;4.80;100.00
16148;BME280;8179;59.364;18.018;2024-02-28T11:37:41;101268.47;;;5.10;100.00
16148;BME280;8179;59.364;18.018;2024-02-28T11:40:08;101273.72;;;5.23;100.00
16148;BME280;8179;59.364;18.018;2024-02-28T11:42:38;101274.03;;;5.15;100.00
16148;BME280;8179;59.364;18.018;2024-02-28T11:45:05;101272.56;;;5.13;100.00
16148;BME280;8179;59.364;18.018;2024-02-28T11:47:32;101267.50;;;5.05;100.00
16148;BME280;8179;59.364;18.018;2024-02-28T11:49:59;101267.91;;;4.65;100.00
16148;BME280;8179;59.364;18.018;2024-02-28T11:52:28;101262.06;;;4.31;100.00
16148;BME280;8179;59.364;18.018;2024-02-28T11:54:56;101267.50;;;4.25;100.00
16148;BME280;8179;59.364;18.018;2024-02-28T11:57:23;101257.09;;;4.28;100.00
16148;BME280;8179;59.364;18.018;2024-02-28T11:59:50;101262.47;;;4.53;100.00
16148;BME280;8179;59.364;18.018;2024-02-28T12:02:17;101257.44;;;4.57;100.00
16148;BME280;8179;59.364;18.018;2024-02-28T12:04:45;101270.38;;;4.48;100.00
16148;BME280;8179;59.364;18.018;2024-02-28T12:07:15;101255.63;;;4.32;100.00
16148;BME280;8179;59.364;18.018;2024-02-28T12:09:43;101253.69;;;4.39;100.00
16148;BME280;8179;59.364;18.018;2024-02-28T12:12:12;101258.63;;;4.43;100.00
16148;BME280;8179;59.364;18.018;2024-02-28T12:14:39;101227.13;;;4.43;100.00
16148;BME280;8179;59.364;18.018;2024-02-28T12:17:08;101249.38;;;4.57;100.00
16148;BME280;8179;59.364;18.018;2024-02-28T12:19:35;101249.38;;;4.57;100.00
16148;BME280;8179;59.364;18.018;2024-02-28T12:22:02;101240.16;;;4.64;100.00
16148;BME280;8179;59.364;18.018;2024-02-28T12:24:29;101229.91;;;4.55;100.00
16148;BME280;8179;59.364;18.018;2024-02-28T12:26:58;101229.63;;;4.45;100.00
16148;BME280;8179;59.364;18.018;2024-02-28T12:29:24;66245.34;;;-144.99;100.00
16148;BME280;8179;59.364;18.018;2024-02-28T12:31:51;66245.34;;;-144.99;100.00
16148;BME280;8179;59.364;18.018;2024-02-28T12:34:18;66245.34;;;-144.99;100.00
16148;BME280;8179;59.364;18.018;2024-02-28T12:36:46;66245.34;;;-144.99;100.00
16148;BME280;8179;59.364;18.018;2024-02-28T12:39:13;66245.34;;;-144.99;100.00
16148;BME280;8179;59.364;18.018;2024-02-28T12:41:40;66245.34;;;-144.99;100.00
16148;BME280;8179;59.364;18.018;2024-02-28T12:44:08;66245.34;;;-144.99;100.00
16148;BME280;8179;59.364;18.018;2024-02-28T12:46:35;66245.34;;;-144.99;100.00
16148;BME280;8179;59.364;18.018;2024-02-28T12:49:02;66245.34;;;-144.99;100.00
16148;BME280;8179;59.364;18.018;2024-02-28T12:51:37;66245.34;;;-144.99;100.00